Edgemont, North Carolina
Current Conditions -  °F | °C
As of 6:55 PM on Monday 20 Oct 2014 (Local Time) from KMRN Reporting Station
Light Rain Light Rain  
Wind Chill: 60°   Ceiling: 12000
Heat Index: 60°   Visibility: 10mi
Dew Point: 56°   Wind: 3mph
Humidity: 87%   Direction: 140°SE
Pressure: 30.02"   Gusts: NA
Location:  35.9726°N, 81.5331°W
Report Text: KMRN 202255Z AUTO 14003KT 10SM -RA SCT100 OVC120 15/13 A3002 RMK AO2 T01540133
Loading
Personal Weather Stations






























Interactive Weather Map
Tropical Storm Tracking
New forecast layout! Learn more

10-Day Weather Forecast

Advertisements
Track Severe Weather on mobile